Time;durP1;ratioP1;P1;durP2;ratioP2;P2;SDS_P1;SDS_P2;PMS_P1;PMS_P2;Temp;Humidity;BMP_temperature;BMP_pressure;BME280_temperature;BME280_humidity;BME280_pressure;Samples;Min_cycle;Max_cycle;Signal;HPM_P1;HPM_P2
2022/11/09 00:00:50;;;;;;;6.97;2.83;;;;;;;13.77;100.00;100387.03;6070676;23;20081;-56
2022/11/09 00:03:18;;;;;;;5.70;2.60;;;;;;;13.78;100.00;100390.59;6071476;23;20022;-55
2022/11/09 00:05:59;;;;;;;6.25;2.83;;;;;;;13.78;100.00;100385.09;6096488;23;20046;-52
2022/11/09 00:08:27;;;;;;;7.53;3.08;;;;;;;13.76;100.00;100393.63;6096478;23;20348;-54
2022/11/09 00:11:00;;;;;;;6.97;2.55;;;;;;;13.75;100.00;100392.00;6094573;23;20070;-52
2022/11/09 00:13:28;;;;;;;6.40;2.70;;;;;;;13.77;100.00;100388.97;6096695;23;20070;-52
2022/11/09 00:15:59;;;;;;;5.78;2.83;;;;;;;13.76;100.00;100388.16;6098100;23;20019;-51
2022/11/09 00:18:29;;;;;;;9.15;3.13;;;;;;;13.76;100.00;100396.38;6098122;23;20435;-53
2022/11/09 00:20:57;;;;;;;7.50;2.83;;;;;;;13.77;100.00;100380.75;6096676;23;20029;-56
2022/11/09 00:23:24;;;;;;;6.40;2.83;;;;;;;13.78;100.00;100379.63;6096877;23;20053;-54
2022/11/09 00:25:52;;;;;;;9.63;3.13;;;;;;;13.78;100.00;100382.38;6098377;23;20396;-56
2022/11/09 00:28:19;;;;;;;9.52;3.25;;;;;;;13.78;100.00;100372.25;6096738;23;20065;-54
2022/11/09 00:30:47;;;;;;;8.02;3.38;;;;;;;13.77;100.00;100383.50;6097652;23;20030;-55
2022/11/09 00:33:15;;;;;;;7.40;2.70;;;;;;;13.77;100.00;100380.75;6096138;23;20094;-55
2022/11/09 00:35:43;;;;;;;6.07;2.50;;;;;;;13.78;100.00;100379.63;6097178;23;20046;-54
2022/11/09 00:38:11;;;;;;;7.43;2.97;;;;;;;13.75;100.00;100382.97;6097895;23;20030;-53
2022/11/09 00:40:39;;;;;;;5.68;2.45;;;;;;;13.77;100.00;100378.00;6096820;23;20077;-53
2022/11/09 00:43:06;;;;;;;6.18;3.03;;;;;;;13.76;100.00;100376.41;6096076;23;20447;-58
2022/11/09 00:45:34;;;;;;;7.40;2.97;;;;;;;13.78;100.00;100385.09;6097467;23;20073;-55
2022/11/09 00:48:02;;;;;;;6.10;2.40;;;;;;;13.76;100.00;100382.69;6096800;23;20014;-56
2022/11/09 00:50:30;;;;;;;7.63;2.60;;;;;;;13.77;100.00;100389.78;6072523;23;20185;-53
2022/11/09 00:52:58;;;;;;;7.30;2.70;;;;;;;13.78;100.00;100380.47;6097859;23;20396;-56
2022/11/09 00:55:25;;;;;;;6.00;2.42;;;;;;;13.76;100.00;100385.44;6096571;23;20022;-56
2022/11/09 00:57:54;;;;;;;7.80;2.75;;;;;;;13.77;100.00;100383.50;6072689;23;20026;-57
2022/11/09 01:00:23;;;;;;;5.47;2.38;;;;;;;13.77;100.00;100388.97;6096231;23;20451;-55
2022/11/09 01:02:53;;;;;;;7.43;2.67;;;;;;;13.75;100.00;100386.53;6096013;23;20019;-56
2022/11/09 01:05:20;;;;;;;9.60;3.00;;;;;;;13.75;100.00;100386.53;6097878;23;20070;-54
2022/11/09 01:07:48;;;;;;;6.97;2.80;;;;;;;13.72;100.00;100378.91;6096166;23;20081;-55
2022/11/09 01:10:16;;;;;;;7.75;2.92;;;;;;;13.70;100.00;100372.13;6097286;23;20022;-56
2022/11/09 01:12:46;;;;;;;7.22;2.80;;;;;;;13.70;100.00;100383.06;6073393;23;20018;-56
2022/11/09 01:15:14;;;;;;;6.93;2.53;;;;;;;13.70;100.00;100389.34;6098105;23;20018;-56
2022/11/09 01:17:42;;;;;;;5.40;2.38;;;;;;;13.71;100.00;100382.78;6096439;23;20342;-55
2022/11/09 01:20:10;;;;;;;6.47;2.47;;;;;;;13.71;100.00;100384.69;6096308;23;20024;-52
2022/11/09 01:22:37;;;;;;;9.30;2.92;;;;;;;13.70;100.00;100381.13;6097604;23;20089;-57
2022/11/09 01:25:06;;;;;;;9.15;3.10;;;;;;;13.70;100.00;100386.63;6097620;23;20041;-57
2022/11/09 01:27:33;;;;;;;6.78;2.53;;;;;;;13.73;100.00;100398.88;6067198;23;20027;-55
2022/11/09 01:30:04;;;;;;;6.55;2.83;;;;;;;13.72;100.00;100394.53;6095866;23;20094;-55
2022/11/09 01:32:32;;;;;;;6.07;2.70;;;;;;;13.69;100.00;100395.94;6096085;23;20074;-53
2022/11/09 01:35:00;;;;;;;6.90;2.60;;;;;;;13.68;100.00;100398.97;6097431;23;20019;-55
2022/11/09 01:37:30;;;;;;;9.02;3.13;;;;;;;13.70;100.00;100399.50;6095674;23;20081;-53
2022/11/09 01:39:57;;;;;;;8.90;2.63;;;;;;;13.71;100.00;100401.09;6097067;23;20309;-52
2022/11/09 01:42:26;;;;;;;5.50;2.17;;;;;;;13.71;100.00;100395.63;6096221;23;20014;-56
2022/11/09 01:45:23;;;;;;;6.40;2.40;;;;;;;13.71;100.00;100390.16;6072309;23;20025;-57
2022/11/09 01:48:14;;;;;;;6.82;2.70;;;;;;;13.72;100.00;100400.00;6095935;23;20034;-53
2022/11/09 01:51:12;;;;;;;5.13;2.25;;;;;;;13.71;100.00;100395.63;6099389;23;20078;-60
2022/11/09 01:53:42;;;;;;;8.70;2.58;;;;;;;13.69;100.00;100398.69;6063995;23;20085;-55
2022/11/09 01:56:12;;;;;;;7.65;2.45;;;;;;;13.67;100.00;100389.16;6097309;23;20474;-56
2022/11/09 01:58:43;;;;;;;8.77;2.78;;;;;;;13.65;100.00;100394.91;6071315;23;20098;-53
2022/11/09 02:01:12;;;;;;;5.97;2.65;;;;;;;13.64;100.00;100396.03;6102508;23;20518;-61
2022/11/09 02:03:53;;;;;;;6.68;2.40;;;;;;;13.65;100.00;100394.91;6098537;23;20066;-55
2022/11/09 02:06:26;;;;;;;7.65;3.08;;;;;;;13.65;100.00;100381.22;6096032;23;20022;-56
2022/11/09 02:08:56;;;;;;;9.13;2.45;;;;;;;13.61;100.00;100381.03;6072618;23;20081;-55
2022/11/09 02:11:28;;;;;;;7.30;2.75;;;;;;;13.61;100.00;100381.03;6072957;23;20029;-57
2022/11/09 02:13:57;;;;;;;8.23;2.78;;;;;;;13.57;100.00;100395.59;6095692;23;20351;-54
2022/11/09 02:16:26;;;;;;;6.80;2.47;;;;;;;13.56;100.00;100397.50;6095547;23;20019;-57
2022/11/09 02:18:57;;;;;;;7.78;2.72;;;;;;;13.55;100.00;100406.84;6095915;23;20025;-56
2022/11/09 02:21:27;;;;;;;9.38;2.70;;;;;;;13.54;100.00;100397.03;6096466;23;20018;-52
2022/11/09 02:23:55;;;;;;;7.47;2.53;;;;;;;13.53;100.00;100395.38;6072254;23;20029;-56
2022/11/09 02:26:31;;;;;;;7.57;2.53;;;;;;;13.53;100.00;100400.84;6095889;23;20021;-55
2022/11/09 02:29:01;;;;;;;9.57;2.40;;;;;;;13.53;100.00;100400.84;6072918;23;20033;-54
2022/11/09 02:31:32;;;;;;;6.50;2.28;;;;;;;13.54;100.00;100402.50;6097859;23;20018;-55
2022/11/09 02:34:05;;;;;;;10.00;3.00;;;;;;;13.54;100.00;100405.22;6101213;23;20086;-56
2022/11/09 02:36:33;;;;;;;8.05;2.58;;;;;;;13.54;100.00;100405.22;6051923;23;20027;-56
2022/11/09 02:39:03;;;;;;;7.45;2.50;;;;;;;13.53;100.00;100406.31;6075624;23;20074;-56
2022/11/09 02:41:32;;;;;;;5.20;2.35;;;;;;;13.53;100.00;100411.00;6100598;23;20022;-55
2022/11/09 02:44:00;;;;;;;7.28;2.78;;;;;;;13.53;100.00;100414.53;6075230;23;20018;-57
2022/11/09 02:46:33;;;;;;;5.53;2.42;;;;;;;13.56;100.00;100413.94;6099961;23;20098;-54
2022/11/09 02:49:01;;;;;;;8.20;2.53;;;;;;;13.52;100.00;100415.66;6100158;23;20022;-56
2022/11/09 02:51:29;;;;;;;6.43;2.22;;;;;;;13.52;100.00;100404.72;6099246;23;20468;-56
2022/11/09 02:53:57;;;;;;;6.82;2.63;;;;;;;13.53;100.00;100402.78;6100980;23;20018;-56
2022/11/09 02:56:25;;;;;;;7.80;2.72;;;;;;;13.52;100.00;100407.44;6099487;23;20022;-57
2022/11/09 02:58:52;;;;;;;7.85;2.75;;;;;;;13.53;100.00;100406.31;6074373;23;20448;-57
2022/11/09 03:01:20;;;;;;;9.77;2.78;;;;;;;13.58;100.00;100389.00;6095828;23;20467;-54
2022/11/09 03:03:49;;;;;;;8.55;2.80;;;;;;;13.55;100.00;100393.16;6097236;23;20022;-56
2022/11/09 03:06:17;;;;;;;7.03;2.50;;;;;;;13.56;100.00;100392.03;6076547;23;20022;-56
2022/11/09 03:08:46;;;;;;;5.35;2.20;;;;;;;13.56;100.00;100393.97;6075477;23;20070;-56
2022/11/09 03:11:14;;;;;;;8.18;2.45;;;;;;;13.55;100.00;100398.63;6075066;23;20046;-57
2022/11/09 03:13:42;;;;;;;7.30;2.42;;;;;;;13.59;100.00;100394.19;6098963;23;20023;-57
2022/11/09 03:16:10;;;;;;;8.77;2.33;;;;;;;13.56;100.00;100394.78;6099398;23;20040;-55
2022/11/09 03:18:39;;;;;;;12.60;3.13;;;;;;;13.53;99.17;100405.50;6097718;23;20026;-56
2022/11/09 03:21:08;;;;;;;7.55;2.60;;;;;;;13.50;98.49;100412.41;6097610;23;20023;-55
2022/11/09 03:23:35;;;;;;;9.50;3.10;;;;;;;13.49;98.50;100424.44;6099145;23;20030;-56
2022/11/09 03:26:03;;;;;;;7.45;2.72;;;;;;;13.47;98.15;100423.94;6096972;23;20022;-56
2022/11/09 03:28:30;;;;;;;10.98;3.22;;;;;;;13.46;97.95;100438.72;6093742;23;20022;-54
2022/11/09 03:30:58;;;;;;;12.80;3.22;;;;;;;13.48;98.06;100436.50;6095343;23;20469;-54
2022/11/09 03:33:26;;;;;;;8.68;2.80;;;;;;;13.50;97.75;100439.78;6096578;23;20808;-55
2022/11/09 03:35:53;;;;;;;10.30;2.60;;;;;;;13.52;97.84;100434.81;6095403;23;20459;-56
2022/11/09 03:38:22;;;;;;;7.50;2.38;;;;;;;13.51;98.19;100438.66;6094800;23;20559;-53
2022/11/09 03:40:50;;;;;;;6.82;2.05;;;;;;;13.52;97.84;100443.03;6072296;23;20018;-54
2022/11/09 03:43:18;;;;;;;7.97;2.60;;;;;;;13.51;97.63;100446.06;6095092;23;20313;-58
2022/11/09 03:45:47;;;;;;;8.25;2.85;;;;;;;13.52;97.84;100450.44;6096264;23;20022;-56
2022/11/09 03:48:14;;;;;;;8.43;2.80;;;;;;;13.52;97.66;100459.44;6096614;23;20474;-54
2022/11/09 03:50:42;;;;;;;10.23;2.88;;;;;;;13.53;97.56;100461.06;6097821;23;20019;-54
2022/11/09 03:53:10;;;;;;;6.88;2.30;;;;;;;13.55;97.79;100453.38;6098397;23;20031;-52
2022/11/09 03:55:40;;;;;;;8.65;2.90;;;;;;;13.55;98.02;100469.81;6097620;23;20023;-51
2022/11/09 03:58:09;;;;;;;7.05;2.63;;;;;;;13.51;98.00;100463.28;6096968;23;20026;-57
2022/11/09 04:00:36;;;;;;;7.20;2.72;;;;;;;13.50;98.30;100469.88;6097019;23;20070;-54
2022/11/09 04:03:04;;;;;;;6.90;2.35;;;;;;;13.49;98.69;100476.44;6098477;23;20025;-52
2022/11/09 04:05:31;;;;;;;10.07;2.70;;;;;;;13.46;98.55;100477.03;6098464;23;20070;-53
2022/11/09 04:07:59;;;;;;;9.02;3.00;;;;;;;13.44;98.00;100479.25;6098433;23;20022;-55
2022/11/09 04:10:27;;;;;;;6.68;2.65;;;;;;;13.44;98.20;100487.47;6098730;23;20456;-53
2022/11/09 04:12:54;;;;;;;7.00;2.67;;;;;;;13.44;98.40;100482.00;6097770;23;20022;-53
2022/11/09 04:15:22;;;;;;;7.13;2.70;;;;;;;13.44;98.41;100484.72;6099160;23;20023;-53
2022/11/09 04:17:58;;;;;;;7.22;3.05;;;;;;;13.42;98.51;100482.31;6099912;23;20094;-58
2022/11/09 04:20:27;;;;;;;9.47;2.87;;;;;;;13.43;98.83;100489.41;6097854;23;20459;-56
2022/11/09 04:22:57;;;;;;;8.57;2.78;;;;;;;13.41;98.81;100493.53;6098802;23;20341;-57
2022/11/09 04:25:25;;;;;;;8.98;2.33;;;;;;;13.41;99.48;100488.88;6098457;23;20022;-57
2022/11/09 04:27:56;;;;;;;8.50;2.25;;;;;;;13.41;99.50;100496.28;6098394;23;20030;-57
2022/11/09 04:30:26;;;;;;;10.23;2.92;;;;;;;13.39;99.58;100503.97;6096934;23;20029;-56
2022/11/09 04:32:58;;;;;;;7.85;3.00;;;;;;;13.36;99.79;100504.56;6097143;23;20026;-58
2022/11/09 04:35:27;;;;;;;7.97;2.63;;;;;;;13.36;100.00;100501.81;6072953;23;20022;-54
2022/11/09 04:37:56;;;;;;;9.75;2.97;;;;;;;13.35;100.00;100502.94;6097521;23;20085;-56
2022/11/09 04:40:25;;;;;;;12.50;3.15;;;;;;;13.38;100.00;100505.09;6097659;23;20061;-57
2022/11/09 04:42:53;;;;;;;10.00;2.60;;;;;;;13.39;100.00;100517.66;6098007;23;20022;-56
2022/11/09 04:45:22;;;;;;;9.60;2.67;;;;;;;13.40;100.00;100508.34;6096694;23;20023;-56
2022/11/09 04:47:49;;;;;;;11.57;3.10;;;;;;;13.38;100.00;100502.34;6096308;23;20022;-58
2022/11/09 04:50:17;;;;;;;8.63;2.88;;;;;;;13.35;100.00;100511.97;6098400;23;20026;-57
2022/11/09 04:52:44;;;;;;;9.45;2.78;;;;;;;13.35;100.00;100511.16;6097869;23;20023;-57
2022/11/09 04:55:12;;;;;;;10.48;3.25;;;;;;;13.38;100.00;100513.28;6098439;23;20022;-53
2022/11/09 04:57:39;;;;;;;8.35;2.67;;;;;;;13.40;100.00;100516.56;6098069;23;20022;-55
2022/11/09 05:00:08;;;;;;;8.65;2.42;;;;;;;13.35;100.00;100513.88;6097286;23;20022;-57
2022/11/09 05:02:35;;;;;;;11.02;2.63;;;;;;;13.33;100.00;100507.91;6096407;23;20029;-50
2022/11/09 05:05:03;;;;;;;8.63;2.35;;;;;;;13.31;100.00;100508.19;6097991;23;20018;-56
2022/11/09 05:07:31;;;;;;;8.23;2.63;;;;;;;13.31;100.00;100501.91;6098283;23;20022;-56
2022/11/09 05:09:58;;;;;;;7.80;2.67;;;;;;;13.29;100.00;100504.91;6098054;23;20022;-55
2022/11/09 05:12:26;;;;;;;9.57;2.70;;;;;;;13.29;100.00;100496.72;6097049;23;20380;-55
2022/11/09 05:14:53;;;;;;;7.90;2.38;;;;;;;13.26;100.00;100505.47;6097431;23;20339;-56
2022/11/09 05:17:21;;;;;;;6.78;2.55;;;;;;;13.25;100.00;100492.88;6098125;23;20022;-57
2022/11/09 05:19:49;;;;;;;9.18;2.75;;;;;;;13.24;100.00;100495.94;6097658;23;20093;-56
2022/11/09 05:25:08;;;;;;;9.48;2.60;;;;;;;13.20;100.00;100507.47;6096859;23;20022;-55
2022/11/09 05:27:37;;;;;;;6.68;2.42;;;;;;;13.21;100.00;100500.09;6096452;23;20022;-57
2022/11/09 05:30:06;;;;;;;7.22;2.45;;;;;;;13.19;100.00;100499.56;6097992;23;20022;-55
2022/11/09 05:32:37;;;;;;;10.88;2.72;;;;;;;13.16;100.00;100500.97;6095966;23;20582;-56
2022/11/09 05:35:05;;;;;;;9.00;2.85;;;;;;;13.12;100.00;100499.91;6096249;23;20014;-56
2022/11/09 05:37:33;;;;;;;10.77;2.97;;;;;;;13.11;100.00;100503.75;6097105;23;20026;-56
2022/11/09 05:40:01;;;;;;;12.25;2.95;;;;;;;13.11;100.00;100509.22;6095986;23;20074;-57
2022/11/09 05:42:29;;;;;;;12.85;3.00;;;;;;;13.12;100.00;100513.59;6096966;23;20098;-56
2022/11/09 05:44:56;;;;;;;9.93;3.00;;;;;;;13.11;100.00;100520.16;6097548;23;20025;-56
2022/11/09 05:47:44;;;;;;;9.95;3.30;;;;;;;13.13;100.00;100511.66;6097176;23;20093;-54
2022/11/09 05:50:15;;;;;;;9.90;2.70;;;;;;;13.14;100.00;100508.63;6096673;23;20022;-63
2022/11/09 05:52:49;;;;;;;11.60;3.00;;;;;;;13.14;100.00;100514.09;6073957;23;20436;-55
2022/11/09 05:55:17;;;;;;;9.43;2.83;;;;;;;13.11;100.00;100509.22;6096096;23;20444;-55
2022/11/09 05:57:44;;;;;;;9.32;2.70;;;;;;;13.09;100.00;100518.84;6097164;23;20018;-56
2022/11/09 06:00:13;;;;;;;6.50;2.40;;;;;;;13.13;100.00;100509.75;6095711;23;20030;-55
2022/11/09 06:02:40;;;;;;;7.03;2.53;;;;;;;13.20;100.00;100507.47;6100748;23;20018;-58
2022/11/09 06:05:08;;;;;;;7.82;2.47;;;;;;;13.17;100.00;100508.03;6103957;23;20018;-59
2022/11/09 06:07:36;;;;;;;9.98;3.10;;;;;;;13.18;100.00;100498.75;6101375;23;20030;-58
2022/11/09 06:10:05;;;;;;;8.75;2.38;;;;;;;13.20;100.00;100507.47;6105251;23;20023;-58
2022/11/09 06:12:32;;;;;;;7.43;2.80;;;;;;;13.17;100.00;100510.78;6104021;23;20022;-57
2022/11/09 06:15:00;;;;;;;7.55;2.92;;;;;;;13.18;100.00;100519.78;6098246;23;20073;-59
2022/11/09 06:17:27;;;;;;;8.93;2.60;;;;;;;13.21;100.00;100516.50;6098586;23;20038;-58
2022/11/09 06:19:55;;;;;;;9.43;3.00;;;;;;;13.19;100.00;100510.50;6097948;23;20015;-56
2022/11/09 06:22:22;;;;;;;11.07;2.80;;;;;;;13.14;100.00;100524.25;6098729;23;20018;-60
2022/11/09 06:24:50;;;;;;;11.70;2.90;;;;;;;13.12;100.00;100520.97;6097930;23;20089;-59
2022/11/09 06:27:18;;;;;;;7.10;2.95;;;;;;;13.10;100.00;100525.94;6096124;23;20077;-56
2022/11/09 06:29:45;;;;;;;9.45;3.03;;;;;;;13.10;100.00;100526.72;6094650;23;20054;-57
2022/11/09 06:32:15;;;;;;;13.32;3.20;;;;;;;13.06;100.00;100531.19;6094645;23;20023;-57
2022/11/09 06:34:47;;;;;;;10.13;3.03;;;;;;;13.00;100.00;100529.59;6093627;23;20030;-56
2022/11/09 06:37:16;;;;;;;9.25;3.03;;;;;;;12.97;100.00;100530.19;6094602;23;20019;-56
2022/11/09 06:39:46;;;;;;;9.07;2.85;;;;;;;12.96;100.00;100531.28;6094640;23;20018;-57
2022/11/09 06:42:13;;;;;;;10.50;2.80;;;;;;;12.98;100.00;100534.53;6093953;23;20133;-56
2022/11/09 06:44:41;;;;;;;9.52;2.65;;;;;;;12.98;100.00;100535.34;6094129;23;20034;-58
2022/11/09 06:47:08;;;;;;;10.13;3.00;;;;;;;13.05;100.00;100543.22;6092171;23;20129;-56
2022/11/09 06:49:36;;;;;;;8.32;3.00;;;;;;;12.99;100.00;100539.72;6093406;23;20033;-57
2022/11/09 06:52:04;;;;;;;12.55;3.92;;;;;;;12.94;100.00;100541.69;6093093;23;20619;-56
2022/11/09 06:54:33;;;;;;;13.50;3.08;;;;;;;12.95;100.00;100544.16;6067815;23;20534;-54
2022/11/09 06:57:01;;;;;;;10.82;3.25;;;;;;;13.08;100.00;100541.81;6091941;23;20090;-57
2022/11/09 06:59:29;;;;;;;7.70;2.65;;;;;;;13.05;100.00;100547.88;6093016;23;20094;-56
2022/11/09 07:01:58;;;;;;;10.25;2.78;;;;;;;13.05;100.00;100548.69;6067164;23;20029;-58
2022/11/09 07:04:28;;;;;;;8.40;3.10;;;;;;;13.05;100.00;100551.41;6092771;23;20019;-57
2022/11/09 07:06:55;;;;;;;11.18;3.10;;;;;;;13.06;100.00;100554.97;6092818;23;20589;-57
2022/11/09 07:09:23;;;;;;;9.60;3.22;;;;;;;13.00;100.00;100552.28;6092763;23;20030;-55
2022/11/09 07:11:51;;;;;;;11.38;3.15;;;;;;;13.00;100.00;100554.22;6093171;23;20029;-55
2022/11/09 07:14:18;;;;;;;12.35;3.70;;;;;;;12.98;100.00;100559.16;6090932;23;20074;-58
2022/11/09 07:16:46;;;;;;;10.40;2.72;;;;;;;13.00;100.00;100562.41;6091159;23;20101;-56
2022/11/09 07:19:13;;;;;;;9.90;2.92;;;;;;;13.06;100.00;100565.91;6092897;23;20581;-57
2022/11/09 07:21:41;;;;;;;6.90;2.45;;;;;;;13.05;100.00;100567.81;6090656;23;20070;-55
2022/11/09 07:24:08;;;;;;;12.18;3.50;;;;;;;13.04;100.00;100562.66;6091081;23;20455;-57
2022/11/09 07:26:36;;;;;;;9.23;3.38;;;;;;;13.04;100.00;100566.22;6092495;23;20018;-55
2022/11/09 07:29:04;;;;;;;11.88;3.47;;;;;;;12.99;100.00;100567.09;6093898;23;20022;-56
2022/11/09 07:31:31;;;;;;;11.52;3.55;;;;;;;12.98;100.00;100570.09;6092982;23;20026;-55
2022/11/09 07:34:03;;;;;;;10.32;2.97;;;;;;;12.99;100.00;100567.09;6093074;23;20022;-54
2022/11/09 07:36:32;;;;;;;9.05;2.70;;;;;;;13.01;100.00;100569.50;6092514;23;20031;-56
2022/11/09 07:38:59;;;;;;;10.45;3.30;;;;;;;12.98;100.00;100572.81;6091212;23;20022;-53
2022/11/09 07:41:27;;;;;;;9.43;2.33;;;;;;;13.06;100.00;100576.84;6093191;23;20347;-56
2022/11/09 07:44:00;;;;;;;7.60;2.67;;;;;;;13.12;100.00;100571.03;6092893;23;20019;-56
2022/11/09 07:46:28;;;;;;;7.10;2.67;;;;;;;13.23;100.00;100574.47;6092663;23;20029;-57
2022/11/09 07:48:56;;;;;;;5.88;2.10;;;;;;;13.35;100.00;100577.63;6092365;23;20459;-58
2022/11/09 07:51:23;;;;;;;9.68;3.03;;;;;;;13.44;100.00;100577.78;6092636;23;20467;-56
2022/11/09 07:53:51;;;;;;;10.00;3.03;;;;;;;13.49;100.00;100582.38;6093334;23;20023;-56
2022/11/09 07:56:18;;;;;;;8.65;2.80;;;;;;;13.44;100.00;100580.53;6091411;23;20448;-57
2022/11/09 07:58:49;;;;;;;6.72;2.65;;;;;;;13.41;100.00;100576.44;6093100;23;20018;-58
2022/11/09 08:01:16;;;;;;;14.25;3.95;;;;;;;13.36;100.00;100586.66;6093922;23;20443;-58
2022/11/09 08:03:44;;;;;;;30.50;8.23;;;;;;;13.37;100.00;100585.53;6096237;23;20325;-55
2022/11/09 08:06:11;;;;;;;32.45;7.10;;;;;;;13.34;100.00;100594.34;6097429;23;20037;-58
2022/11/09 08:08:45;;;;;;;21.27;5.30;;;;;;;13.45;100.00;100590.38;6096466;23;20062;-56
2022/11/09 08:11:12;;;;;;;14.90;4.15;;;;;;;13.44;100.00;100594.22;6096591;23;20352;-56
2022/11/09 08:13:40;;;;;;;16.70;4.63;;;;;;;13.38;100.00;100596.19;6096814;23;20029;-60
2022/11/09 08:16:07;;;;;;;16.33;4.78;;;;;;;13.24;100.00;100597.97;6094629;23;20023;-57
2022/11/09 08:18:35;;;;;;;12.73;4.45;;;;;;;13.27;100.00;100599.31;6096400;23;20734;-60
2022/11/09 08:21:03;;;;;;;13.32;3.80;;;;;;;13.25;100.00;100601.53;6096349;23;20542;-57
2022/11/09 08:23:31;;;;;;;12.73;3.72;;;;;;;13.50;100.00;100614.94;6096754;23;20026;-57
2022/11/09 08:26:03;;;;;;;12.20;3.58;;;;;;;13.31;100.00;100605.88;6096662;23;20050;-58
2022/11/09 08:28:30;;;;;;;15.45;4.00;;;;;;;13.16;100.00;100615.03;6094298;23;20023;-58
2022/11/09 08:31:00;;;;;;;15.02;3.90;;;;;;;13.05;100.00;100619.00;6094856;23;20022;-57
2022/11/09 08:33:31;;;;;;;11.80;3.38;;;;;;;12.96;100.00;100625.09;6096574;23;20023;-58
2022/11/09 08:35:59;;;;;;;10.63;3.47;;;;;;;13.01;100.00;100624.19;6095171;23;20394;-57
2022/11/09 08:38:27;;;;;;;13.30;4.57;;;;;;;12.96;100.00;100627.00;6097762;23;20452;-57
2022/11/09 08:40:58;;;;;;;10.48;3.88;;;;;;;12.97;100.00;100623.16;6097480;23;20018;-56
2022/11/09 08:43:28;;;;;;;14.90;3.72;;;;;;;13.01;100.00;100624.19;6098012;23;20024;-55
2022/11/09 08:45:56;;;;;;;13.90;3.55;;;;;;;12.97;100.00;100623.16;6098354;23;20461;-58
2022/11/09 08:48:24;;;;;;;12.95;4.22;;;;;;;12.93;100.00;100633.03;6098370;23;20022;-56
2022/11/09 08:50:56;;;;;;;10.55;3.38;;;;;;;12.95;100.00;100631.66;6098073;23;20033;-57
2022/11/09 08:53:25;;;;;;;10.43;4.00;;;;;;;13.05;100.00;100629.94;6097701;23;20033;-56
2022/11/09 08:55:53;;;;;;;9.73;3.28;;;;;;;13.12;100.00;100623.00;6094702;23;20129;-56
2022/11/09 08:58:21;;;;;;;17.38;3.50;;;;;;;13.06;100.00;100624.19;6092378;23;20093;-56
2022/11/09 09:00:49;;;;;;;12.50;4.75;;;;;;;13.18;100.00;100634.69;6096934;23;20102;-52
2022/11/09 09:03:17;;;;;;;19.75;4.80;;;;;;;13.26;100.00;100627.78;6096315;23;20444;-58
2022/11/09 09:05:44;;;;;;;25.55;8.02;;;;;;;13.39;100.00;100627.13;6096520;23;20046;-54
2022/11/09 09:08:14;;;;;;;26.10;9.02;;;;;;;13.54;100.00;100643.38;6095805;23;20065;-51
2022/11/09 09:10:42;;;;;;;12.93;4.50;;;;;;;13.60;100.00;100633.16;6096337;23;20027;-51
2022/11/09 09:13:10;;;;;;;18.27;5.30;;;;;;;13.44;100.00;100629.78;6097454;23;20510;-52
2022/11/09 09:15:39;;;;;;;21.52;7.45;;;;;;;13.50;100.00;100634.09;6096353;23;20029;-50
2022/11/09 09:18:06;;;;;;;19.48;6.25;;;;;;;13.61;100.00;100634.78;6097490;23;20089;-54
2022/11/09 09:20:34;;;;;;;27.98;7.75;;;;;;;13.73;100.00;100635.16;6097863;23;20019;-51
2022/11/09 09:23:01;;;;;;;24.52;7.90;;;;;;;14.00;100.00;100640.03;6097647;23;20325;-50
2022/11/09 09:25:29;;;;;;;14.55;3.45;;;;;;;13.76;100.00;100645.56;6096071;23;20018;-51
2022/11/09 09:27:57;;;;;;;17.77;6.35;;;;;;;13.77;100.00;100646.38;6097828;23;20066;-51
2022/11/09 09:30:24;;;;;;;22.25;7.20;;;;;;;13.75;100.00;100648.56;6097297;23;20034;-52
2022/11/09 09:32:56;;;;;;;17.75;6.22;;;;;;;13.78;100.00;100642.50;6096349;23;20496;-53
2022/11/09 09:35:23;;;;;;;21.65;7.68;;;;;;;13.89;100.00;100646.75;6097614;23;20077;-52
2022/11/09 09:37:51;;;;;;;16.35;5.18;;;;;;;13.98;100.00;100653.19;6096067;23;20519;-54
2022/11/09 09:40:40;;;;;;;24.73;6.50;;;;;;;13.98;100.00;100653.19;6095513;23;20018;-54
2022/11/09 09:43:20;;;;;;;19.45;5.05;;;;;;;13.90;100.00;100653.03;6097133;23;20018;-57
2022/11/09 09:45:51;;;;;;;15.73;4.82;;;;;;;13.81;100.00;100661.13;6095773;23;20070;-56
2022/11/09 09:48:30;;;;;;;12.48;5.07;;;;;;;13.84;100.00;100657.78;6096100;23;20022;-57
2022/11/09 09:51:12;;;;;;;15.98;4.15;;;;;;;14.04;100.00;100662.97;6095767;23;20041;-57
2022/11/09 09:53:44;;;;;;;17.45;5.18;;;;;;;13.94;100.00;100670.53;6095789;23;20379;-58
2022/11/09 09:56:23;;;;;;;15.15;4.20;;;;;;;13.79;98.63;100668.81;6096347;23;20340;-58
2022/11/09 09:59:02;;;;;;;18.73;5.65;;;;;;;13.76;100.00;100666.66;6096140;23;20022;-57
2022/11/09 10:01:41;;;;;;;17.67;4.95;;;;;;;13.91;100.00;100671.94;6095236;23;20022;-58
2022/11/09 10:04:21;;;;;;;14.35;4.22;;;;;;;13.93;98.68;100672.44;6095980;23;20025;-56
2022/11/09 10:06:58;;;;;;;13.15;4.82;;;;;;;13.85;100.00;100673.09;6096021;23;20022;-58
2022/11/09 10:10:11;;;;;;;16.23;5.57;;;;;;;13.79;100.00;100677.81;6097131;23;20404;-56
2022/11/09 10:12:50;;;;;;;15.15;5.25;;;;;;;13.95;100.00;100681.19;6096751;23;20018;-55
2022/11/09 10:15:49;;;;;;;11.65;3.75;;;;;;;13.87;100.00;100679.09;6097346;23;20032;-57
2022/11/09 10:18:55;;;;;;;14.07;4.47;;;;;;;14.12;100.00;100679.84;6095929;23;20073;-56
2022/11/09 10:21:43;;;;;;;15.13;4.43;;;;;;;14.13;100.00;100681.50;6096873;23;20391;-57
2022/11/09 10:24:37;;;;;;;15.82;3.83;;;;;;;14.07;100.00;100678.84;6097326;23;20022;-58
2022/11/09 10:27:27;;;;;;;20.33;4.68;;;;;;;14.23;97.10;100681.34;6074809;23;20022;-57
2022/11/09 10:29:54;;;;;;;25.38;5.38;;;;;;;14.09;96.60;100686.75;6096061;23;20022;-57
2022/11/09 10:32:23;;;;;;;14.48;4.15;;;;;;;13.98;93.48;100679.78;6094952;23;20356;-56
2022/11/09 10:35:04;;;;;;;13.82;4.25;;;;;;;13.90;94.03;100677.69;6094087;23;20466;-53
2022/11/09 10:37:38;;;;;;;17.25;4.38;;;;;;;13.91;95.00;100685.63;6095761;23;20022;-58
2022/11/09 10:40:15;;;;;;;11.55;3.88;;;;;;;14.03;96.26;100682.44;6096239;23;20041;-56
2022/11/09 10:43:08;;;;;;;11.68;3.13;;;;;;;13.92;92.64;100689.97;6096399;23;20018;-56
2022/11/09 10:46:04;;;;;;;11.52;3.40;;;;;;;13.77;91.87;100691.00;6094006;23;20030;-56
2022/11/09 10:48:51;;;;;;;11.82;3.20;;;;;;;13.72;91.22;100692.97;6096224;23;20026;-59
2022/11/09 10:51:40;;;;;;;10.63;3.17;;;;;;;13.69;90.11;100708.06;6097557;23;20022;-58
2022/11/09 10:54:36;;;;;;;15.13;3.58;;;;;;;13.65;89.50;100693.31;6097009;23;20022;-57
2022/11/09 10:57:24;;;;;;;11.05;2.97;;;;;;;13.64;90.14;100702.66;6096700;23;20026;-55
2022/11/09 11:00:15;;;;;;;16.23;3.70;;;;;;;13.64;90.26;100700.72;6074850;23;20034;-59
2022/11/09 11:03:16;;;;;;;8.88;3.30;;;;;;;13.71;91.30;100699.56;6096353;23;20022;-57
2022/11/09 11:06:16;;;;;;;10.38;3.65;;;;;;;14.12;100.00;100697.13;6096868;23;20023;-58
2022/11/09 11:09:05;;;;;;;11.10;3.47;;;;;;;14.35;100.00;100706.38;6096823;23;20022;-57
2022/11/09 11:12:15;;;;;;;13.93;4.28;;;;;;;14.13;93.47;100703.41;6096570;23;20027;-58
2022/11/09 11:15:01;;;;;;;11.25;3.70;;;;;;;14.01;94.53;100706.59;6096989;23;20078;-58
2022/11/09 11:17:48;;;;;;;11.93;4.03;;;;;;;14.14;100.00;100713.25;6095470;23;20018;-58
2022/11/09 11:20:36;;;;;;;12.88;3.92;;;;;;;14.06;94.91;100726.50;6095476;23;20034;-56
2022/11/09 11:23:24;;;;;;;15.20;4.35;;;;;;;14.12;94.35;100712.72;6095081;23;20010;-58
2022/11/09 11:26:26;;;;;;;12.27;3.60;;;;;;;13.99;94.01;100720.56;6095675;23;20026;-58
2022/11/09 11:29:33;;;;;;;10.32;3.42;;;;;;;13.89;91.07;100720.69;6094413;23;20019;-53
2022/11/09 11:32:20;;;;;;;12.82;3.50;;;;;;;13.87;91.90;100705.66;6094309;23;20027;-58
2022/11/09 11:35:16;;;;;;;12.13;3.40;;;;;;;13.97;96.01;100711.81;6093766;23;20261;-58
2022/11/09 11:38:28;;;;;;;12.68;3.38;;;;;;;14.09;96.65;100713.31;6094704;23;20018;-58